createdAt,value
2019-02-18T00:00:42.248Z,4.60
2019-02-18T00:03:11.287Z,4.60
2019-02-18T00:05:40.252Z,4.60
2019-02-18T00:08:09.143Z,4.60
2019-02-18T00:10:38.182Z,4.60
2019-02-18T00:13:07.348Z,4.60
2019-02-18T00:15:36.331Z,4.60
2019-02-18T00:18:05.239Z,4.60
2019-02-18T00:20:34.164Z,4.60
2019-02-18T00:23:03.051Z,4.60
2019-02-18T00:25:32.065Z,4.60
2019-02-18T00:28:01.159Z,4.60
2019-02-18T00:30:30.067Z,4.60
2019-02-18T00:32:58.945Z,4.50
2019-02-18T00:35:27.804Z,4.50
2019-02-18T00:37:56.599Z,4.40
2019-02-18T00:40:25.535Z,4.40
2019-02-18T00:42:54.427Z,4.40
2019-02-18T00:45:23.274Z,4.40
2019-02-18T00:47:52.167Z,4.30
2019-02-18T00:50:21.085Z,4.30
2019-02-18T00:52:49.954Z,4.30
2019-02-18T00:55:18.830Z,4.40
2019-02-18T00:57:47.637Z,4.50
2019-02-18T01:00:17.407Z,4.50
2019-02-18T01:02:46.439Z,4.50
2019-02-18T01:05:15.529Z,4.60
2019-02-18T01:07:44.414Z,4.60
2019-02-18T01:10:13.564Z,4.70
2019-02-18T01:12:42.456Z,4.70
2019-02-18T01:15:12.053Z,4.70
2019-02-18T01:17:41.107Z,4.70
2019-02-18T01:20:10.691Z,4.70
2019-02-18T01:22:39.694Z,4.70
2019-02-18T01:25:09.983Z,4.70
2019-02-18T01:27:38.865Z,4.80
2019-02-18T01:30:10.587Z,4.80
2019-02-18T01:32:39.505Z,4.70
2019-02-18T01:35:09.057Z,4.70
2019-02-18T01:37:45.163Z,4.70
2019-02-18T01:40:10.655Z,4.70
2019-02-18T01:42:39.503Z,4.60
2019-02-18T01:45:09.727Z,4.60
2019-02-18T01:47:38.528Z,4.60
2019-02-18T01:50:10.135Z,4.60
2019-02-18T01:52:39.145Z,4.50
2019-02-18T01:55:08.407Z,4.50
2019-02-18T01:57:37.279Z,4.50
2019-02-18T02:00:06.994Z,4.50
2019-02-18T02:02:35.902Z,4.40
2019-02-18T02:05:05.592Z,4.40
2019-02-18T02:07:34.411Z,4.40
2019-02-18T02:10:03.517Z,4.40
2019-02-18T02:12:32.433Z,4.40
2019-02-18T02:15:01.379Z,4.40
2019-02-18T02:17:30.266Z,4.40
2019-02-18T02:19:59.413Z,4.30
2019-02-18T02:22:28.243Z,4.30
2019-02-18T02:24:57.141Z,4.30
2019-02-18T02:27:26.021Z,4.20
2019-02-18T02:29:54.880Z,4.20
2019-02-18T02:32:23.740Z,4.20
2019-02-18T02:34:52.641Z,4.10
2019-02-18T02:37:21.649Z,4.10
2019-02-18T02:39:50.628Z,4.10
2019-02-18T02:42:19.604Z,4.00
2019-02-18T02:44:48.534Z,3.90
2019-02-18T02:47:17.367Z,3.70
2019-02-18T02:49:46.164Z,3.70
2019-02-18T02:52:14.983Z,3.60
2019-02-18T02:54:43.840Z,3.50
2019-02-18T02:57:12.694Z,3.50
2019-02-18T02:59:41.533Z,3.40
2019-02-18T03:02:10.348Z,3.40
2019-02-18T03:04:39.213Z,3.40
2019-02-18T03:07:08.104Z,3.50
2019-02-18T03:09:36.919Z,3.40
2019-02-18T03:12:05.746Z,3.50
2019-02-18T03:14:34.720Z,3.40
2019-02-18T03:17:03.590Z,3.40
2019-02-18T03:19:32.583Z,3.40
2019-02-18T03:22:01.615Z,3.40
2019-02-18T03:24:30.531Z,3.40
2019-02-18T03:26:59.334Z,3.40
2019-02-18T03:30:09.543Z,3.40
2019-02-18T03:32:53.933Z,3.40
2019-02-18T03:35:22.836Z,3.50
2019-02-18T03:37:51.728Z,3.50
2019-02-18T03:40:20.667Z,3.40
2019-02-18T03:42:49.516Z,3.40
2019-02-18T03:45:18.469Z,3.40
2019-02-18T03:47:47.292Z,3.40
2019-02-18T03:50:16.150Z,3.40
2019-02-18T03:52:45.068Z,3.50
2019-02-18T03:55:13.928Z,3.40
2019-02-18T03:57:42.858Z,3.30
2019-02-18T04:00:11.928Z,3.30
2019-02-18T04:02:40.914Z,3.30
2019-02-18T04:05:09.837Z,3.20
2019-02-18T04:07:38.752Z,3.20
2019-02-18T04:10:07.798Z,3.20
2019-02-18T04:12:36.708Z,3.10
2019-02-18T04:15:06.611Z,3.10
2019-02-18T04:17:35.496Z,3.10
2019-02-18T04:20:04.639Z,3.20
2019-02-18T04:22:33.414Z,3.20
2019-02-18T04:25:02.270Z,3.20
2019-02-18T04:27:31.049Z,3.20
2019-02-18T04:30:00.210Z,3.20
2019-02-18T04:32:29.208Z,3.20
2019-02-18T04:34:58.060Z,3.10
2019-02-18T04:37:26.836Z,3.00
2019-02-18T04:39:55.609Z,2.90
2019-02-18T04:42:24.747Z,2.90
2019-02-18T04:44:53.663Z,2.80
2019-02-18T04:47:22.593Z,2.80
2019-02-18T04:49:51.478Z,2.70
2019-02-18T04:52:20.485Z,2.70
2019-02-18T04:54:49.302Z,2.60
2019-02-18T04:57:18.142Z,2.50
2019-02-18T04:59:47.003Z,2.50
2019-02-18T05:02:15.851Z,2.50
2019-02-18T05:04:44.805Z,2.40
2019-02-18T05:07:13.732Z,2.40
2019-02-18T05:09:42.520Z,2.30
2019-02-18T05:12:11.444Z,2.30
2019-02-18T05:14:40.433Z,2.40
2019-02-18T05:17:09.528Z,2.40
2019-02-18T05:19:38.320Z,2.40
2019-02-18T05:22:07.241Z,2.40
2019-02-18T05:24:36.222Z,2.50
2019-02-18T05:27:05.102Z,2.40
2019-02-18T05:29:33.926Z,2.30
2019-02-18T05:32:24.077Z,2.30
2019-02-18T05:34:53.054Z,2.20
2019-02-18T05:37:21.957Z,2.10
2019-02-18T05:39:50.947Z,2.10
2019-02-18T05:42:19.947Z,2.10
2019-02-18T05:44:48.969Z,2.00
2019-02-18T05:47:17.773Z,2.10
2019-02-18T05:49:46.927Z,2.00
2019-02-18T05:52:15.805Z,2.00
2019-02-18T05:54:44.977Z,2.00
2019-02-18T05:57:14.111Z,2.00
2019-02-18T05:59:42.998Z,1.90
2019-02-18T06:02:12.023Z,1.90
2019-02-18T06:04:41.023Z,1.80
2019-02-18T06:07:09.921Z,1.80
2019-02-18T06:09:39.085Z,1.80
2019-02-18T06:12:09.179Z,1.90
2019-02-18T06:14:38.195Z,1.90
2019-02-18T06:17:07.172Z,1.90
2019-02-18T06:19:36.635Z,1.80
2019-02-18T06:22:05.632Z,1.80
2019-02-18T06:24:34.745Z,1.80
2019-02-18T06:27:03.795Z,1.80
2019-02-18T06:29:32.660Z,1.80
2019-02-18T06:32:01.547Z,1.80
2019-02-18T06:34:30.547Z,1.80
2019-02-18T06:36:59.535Z,1.70
2019-02-18T06:39:40.138Z,1.80
2019-02-18T06:41:59.343Z,1.80
2019-02-18T06:44:50.531Z,1.80
2019-02-18T06:47:25.190Z,1.80
2019-02-18T06:49:53.601Z,1.80
2019-02-18T06:52:22.758Z,1.80
2019-02-18T06:54:51.616Z,1.90
2019-02-18T06:57:40.443Z,1.90
2019-02-18T07:00:25.170Z,1.90
2019-02-18T07:03:04.400Z,1.90
2019-02-18T07:05:40.563Z,1.90
2019-02-18T07:08:15.527Z,1.90
2019-02-18T07:11:06.475Z,2.00
2019-02-18T07:13:35.448Z,2.00
2019-02-18T07:16:04.423Z,2.10
2019-02-18T07:18:33.347Z,2.10
2019-02-18T07:21:03.341Z,2.20
2019-02-18T07:23:32.214Z,2.20
2019-02-18T07:26:01.201Z,2.30
2019-02-18T07:28:30.061Z,2.40
2019-02-18T07:30:59.006Z,2.40
2019-02-18T07:33:27.904Z,2.50
2019-02-18T07:35:56.770Z,2.60
2019-02-18T07:38:25.846Z,2.70
2019-02-18T07:40:54.714Z,2.80
2019-02-18T07:43:23.569Z,2.90
2019-02-18T07:45:52.416Z,3.00
2019-02-18T07:48:21.380Z,3.10
2019-02-18T07:50:50.589Z,3.20
2019-02-18T07:53:19.521Z,3.30
2019-02-18T07:55:48.358Z,3.40
2019-02-18T07:58:17.239Z,3.40
2019-02-18T08:00:46.105Z,3.50
2019-02-18T08:03:15.132Z,3.60
2019-02-18T08:05:44.060Z,3.70
2019-02-18T08:08:12.938Z,3.90
2019-02-18T08:10:41.864Z,3.90
2019-02-18T08:13:10.899Z,4.10
2019-02-18T08:15:39.878Z,4.20
2019-02-18T08:18:08.738Z,4.20
2019-02-18T08:20:37.662Z,4.30
2019-02-18T08:23:06.626Z,4.40
2019-02-18T08:25:35.432Z,4.50
2019-02-18T08:28:04.427Z,4.60
2019-02-18T08:30:33.319Z,4.60
2019-02-18T08:33:02.233Z,4.80
2019-02-18T08:35:31.286Z,4.80
2019-02-18T08:38:01.754Z,4.90
2019-02-18T08:40:30.644Z,5.00
2019-02-18T08:42:59.474Z,5.10
2019-02-18T08:45:28.424Z,5.20
2019-02-18T08:47:57.244Z,5.40
2019-02-18T08:50:26.059Z,5.50
2019-02-18T08:52:54.973Z,5.70
2019-02-18T08:55:23.850Z,5.80
2019-02-18T08:57:52.799Z,5.90
2019-02-18T09:00:21.708Z,6.10
2019-02-18T09:02:50.603Z,6.20
2019-02-18T09:05:19.538Z,6.40
2019-02-18T09:07:48.914Z,6.50
2019-02-18T09:10:17.831Z,6.60
2019-02-18T09:12:46.742Z,6.70
2019-02-18T09:15:15.615Z,6.90
2019-02-18T09:17:44.501Z,7.10
2019-02-18T09:20:14.317Z,7.30
2019-02-18T09:22:59.692Z,7.50
2019-02-18T09:25:35.796Z,7.60
2019-02-18T09:28:04.628Z,7.80
2019-02-18T09:30:35.956Z,8.00
2019-02-18T09:33:05.051Z,8.10
2019-02-18T09:35:33.990Z,8.20
2019-02-18T09:38:02.919Z,8.50
2019-02-18T09:40:43.917Z,8.70
2019-02-18T09:43:03.504Z,9.30
2019-02-18T09:45:32.516Z,10.70
2019-02-18T09:50:29.829Z,14.30
2019-02-18T09:52:58.847Z,15.50
2019-02-18T09:57:56.146Z,16.80
2019-02-18T10:00:25.067Z,17.30
2019-02-18T10:02:53.986Z,17.80
2019-02-18T10:05:23.420Z,18.00
2019-02-18T10:07:52.311Z,18.20
2019-02-18T10:10:21.187Z,18.20
2019-02-18T10:12:50.725Z,18.70
2019-02-18T10:25:14.090Z,18.40
2019-02-18T10:27:43.095Z,17.90
2019-02-18T10:30:12.320Z,18.00
2019-02-18T10:32:41.309Z,18.10
2019-02-18T10:35:10.893Z,17.30
2019-02-18T10:37:39.951Z,18.30
2019-02-18T10:40:09.426Z,18.20
2019-02-18T10:42:38.503Z,17.90
2019-02-18T10:45:08.955Z,17.90
2019-02-18T10:47:37.801Z,17.80
2019-02-18T10:50:07.623Z,17.80
2019-02-18T10:52:36.519Z,17.80
2019-02-18T10:55:05.647Z,18.10
2019-02-18T10:57:35.007Z,17.90
2019-02-18T11:05:02.407Z,18.60
2019-02-18T11:07:31.286Z,18.30
2019-02-18T11:37:13.856Z,18.50
2019-02-18T11:39:42.820Z,18.50
2019-02-18T11:42:11.680Z,18.40
2019-02-18T11:44:40.535Z,18.60
2019-02-18T11:47:09.435Z,18.50
2019-02-18T11:49:38.349Z,18.90
2019-02-18T11:52:07.354Z,19.10
2019-02-18T11:54:36.247Z,18.60
2019-02-18T11:57:05.277Z,18.90
2019-02-18T11:59:34.150Z,19.60
2019-02-18T12:02:03.545Z,19.60
2019-02-18T12:04:32.851Z,19.20
2019-02-18T12:07:01.740Z,18.80
2019-02-18T12:26:57.404Z,19.30
2019-02-18T12:29:26.874Z,19.50
2019-02-18T12:31:55.945Z,19.40
2019-02-18T12:34:24.913Z,19.50
2019-02-18T12:36:54.220Z,20.10
2019-02-18T12:39:23.090Z,20.20
2019-02-18T12:41:52.058Z,20.40
2019-02-18T12:44:21.062Z,20.40
2019-02-18T12:46:50.012Z,20.40
2019-02-18T12:49:18.931Z,20.40
2019-02-18T12:51:48.072Z,20.00
2019-02-18T12:54:16.982Z,19.70
2019-02-18T12:56:45.993Z,19.90
2019-02-18T12:59:14.910Z,19.80
2019-02-18T13:01:43.874Z,19.60
2019-02-18T13:04:12.772Z,19.80
2019-02-18T13:06:41.722Z,19.80
2019-02-18T13:09:10.899Z,19.50
2019-02-18T13:11:39.808Z,19.60
2019-02-18T13:14:08.738Z,19.00
2019-02-18T13:16:37.610Z,18.70
2019-02-18T13:19:06.643Z,18.80
2019-02-18T13:21:35.595Z,18.70
2019-02-18T13:24:04.866Z,18.60
2019-02-18T13:26:33.846Z,18.50
2019-02-18T13:29:03.141Z,18.20
2019-02-18T13:31:32.450Z,18.20
2019-02-18T13:34:01.321Z,18.20
2019-02-18T13:36:30.218Z,18.00
2019-02-18T13:38:59.457Z,17.80
2019-02-18T13:41:28.541Z,18.10
2019-02-18T13:43:57.578Z,18.40
2019-02-18T13:46:26.531Z,18.30
2019-02-18T13:48:56.503Z,18.40
2019-02-18T13:51:25.478Z,18.10
2019-02-18T13:53:54.766Z,18.10
2019-02-18T13:56:23.691Z,18.10
2019-02-18T13:58:52.879Z,18.20
2019-02-18T14:01:21.872Z,18.60
2019-02-18T14:03:50.753Z,19.10
2019-02-18T14:06:20.367Z,19.40
2019-02-18T14:08:49.265Z,19.30
2019-02-18T14:11:18.401Z,18.80
2019-02-18T14:13:47.520Z,18.80
2019-02-18T14:16:16.478Z,18.80
2019-02-18T14:18:45.516Z,18.60
2019-02-18T14:21:14.389Z,18.70
2019-02-18T14:23:43.330Z,18.60
2019-02-18T14:26:12.346Z,18.50
2019-02-18T14:28:41.681Z,18.30
2019-02-18T14:31:10.541Z,18.50
2019-02-18T14:33:39.403Z,18.20
2019-02-18T14:36:08.389Z,18.10
2019-02-18T14:38:37.417Z,17.80
2019-02-18T14:41:06.305Z,17.80
2019-02-18T14:43:35.623Z,17.70
2019-02-18T14:46:04.527Z,17.70
2019-02-18T14:48:33.411Z,17.60
2019-02-18T14:51:02.322Z,17.50
2019-02-18T14:53:31.543Z,17.60
2019-02-18T14:56:00.540Z,17.50
2019-02-18T14:58:29.961Z,17.20
2019-02-18T15:00:58.889Z,17.10
2019-02-18T15:03:27.973Z,17.00
2019-02-18T15:05:57.001Z,16.90
2019-02-18T15:08:25.931Z,16.50
2019-02-18T15:10:54.961Z,16.20
2019-02-18T15:13:23.993Z,15.90
2019-02-18T15:15:52.884Z,15.90
2019-02-18T15:18:21.837Z,15.90
2019-02-18T15:20:50.823Z,15.70
2019-02-18T15:23:19.825Z,15.70
2019-02-18T15:25:48.751Z,15.40
2019-02-18T15:28:17.737Z,15.30
2019-02-18T15:30:46.815Z,15.20
2019-02-18T15:33:15.789Z,15.10
2019-02-18T15:35:44.702Z,15.10
2019-02-18T15:38:13.750Z,14.90
2019-02-18T15:40:42.741Z,14.80
2019-02-18T15:43:11.769Z,14.70
2019-02-18T15:45:40.793Z,14.60
2019-02-18T15:48:09.873Z,14.50
2019-02-18T15:53:07.371Z,14.30
2019-02-18T15:55:36.465Z,14.10
2019-02-18T15:58:05.924Z,14.00
2019-02-18T16:00:35.493Z,13.90
2019-02-18T16:03:05.303Z,13.80
2019-02-18T16:08:03.439Z,13.50
2019-02-18T16:10:32.399Z,13.40
2019-02-18T16:13:01.356Z,13.30
2019-02-18T16:15:30.583Z,13.20
2019-02-18T16:17:59.488Z,13.10
2019-02-18T16:20:28.557Z,13.00
2019-02-18T16:22:57.483Z,12.90
2019-02-18T16:25:26.450Z,12.90
2019-02-18T16:27:55.355Z,12.80
2019-02-18T16:30:24.856Z,12.70
2019-02-18T16:32:53.863Z,12.60
2019-02-18T16:35:23.367Z,12.40
2019-02-18T16:37:52.290Z,12.30
2019-02-18T16:40:21.483Z,12.20
2019-02-18T16:42:58.892Z,12.20
2019-02-18T16:45:21.294Z,12.10
2019-02-18T16:47:50.250Z,12.00
2019-02-18T16:50:19.172Z,11.90
2019-02-18T16:52:48.104Z,11.80
2019-02-18T16:55:17.104Z,11.80
2019-02-18T16:57:46.009Z,11.70
2019-02-18T17:00:41.114Z,11.60
2019-02-18T17:03:09.977Z,11.50
2019-02-18T17:08:07.559Z,11.20
2019-02-18T17:10:36.611Z,11.10
2019-02-18T17:13:08.129Z,11.00
2019-02-18T17:15:36.294Z,11.00
2019-02-18T17:18:05.408Z,10.90
2019-02-18T17:20:34.334Z,10.70
2019-02-18T17:23:03.272Z,10.60
2019-02-18T17:25:32.360Z,10.50
2019-02-18T17:28:01.328Z,10.40
2019-02-18T17:30:30.232Z,10.30
2019-02-18T17:32:59.213Z,10.30
2019-02-18T17:35:28.089Z,10.30
2019-02-18T17:37:56.998Z,10.30
2019-02-18T17:40:26.890Z,10.20
2019-02-18T17:42:55.924Z,10.10
2019-02-18T17:45:24.951Z,10.00
2019-02-18T17:47:53.852Z,10.00
2019-02-18T17:50:22.774Z,10.00
2019-02-18T17:52:51.758Z,9.90
2019-02-18T17:55:21.155Z,9.90
2019-02-18T17:57:50.049Z,9.90
2019-02-18T18:00:21.531Z,9.90
2019-02-18T18:02:50.667Z,9.90
2019-02-18T18:05:19.727Z,9.90
2019-02-18T18:07:48.967Z,9.90
2019-02-18T18:10:18.260Z,9.80
2019-02-18T18:12:47.289Z,9.80
2019-02-18T18:15:16.334Z,9.80
2019-02-18T18:17:45.330Z,9.70
2019-02-18T18:20:14.331Z,9.70
2019-02-18T18:22:43.336Z,9.70
2019-02-18T18:25:12.762Z,9.70
2019-02-18T18:27:41.731Z,9.60
2019-02-18T18:30:11.726Z,9.60
2019-02-18T18:32:40.617Z,9.60
2019-02-18T18:35:10.208Z,9.60
2019-02-18T18:37:39.857Z,9.60
2019-02-18T18:40:11.070Z,9.50
2019-02-18T18:42:39.958Z,9.40
2019-02-18T18:45:10.357Z,9.40
2019-02-18T18:47:39.240Z,9.30
2019-02-18T18:50:10.766Z,9.30
2019-02-18T18:52:39.686Z,9.20
2019-02-18T18:55:08.815Z,9.10
2019-02-18T18:57:37.821Z,9.00
2019-02-18T19:00:09.009Z,8.90
2019-02-18T19:02:38.006Z,8.80
2019-02-18T19:05:07.267Z,8.80
2019-02-18T19:07:36.575Z,8.80
2019-02-18T19:10:06.165Z,8.80
2019-02-18T19:12:35.251Z,8.80
2019-02-18T19:15:04.963Z,8.70
2019-02-18T19:17:33.853Z,8.70
2019-02-18T19:20:02.797Z,8.70
2019-02-18T19:22:31.981Z,8.60
2019-02-18T19:25:01.044Z,8.60
2019-02-18T19:27:30.110Z,8.60
2019-02-18T19:29:59.068Z,8.60
2019-02-18T19:32:28.197Z,8.50
2019-02-18T19:34:57.261Z,8.50
2019-02-18T19:37:26.671Z,8.50
2019-02-18T19:39:55.729Z,8.50
2019-02-18T19:42:24.702Z,8.50
2019-02-18T19:44:53.693Z,8.40
2019-02-18T19:47:22.553Z,8.30
2019-02-18T19:49:51.499Z,8.40
2019-02-18T19:52:20.583Z,8.30
2019-02-18T19:54:49.601Z,8.30
2019-02-18T19:58:46.763Z,8.30
2019-02-18T20:02:40.593Z,8.30
2019-02-18T20:05:56.915Z,8.20
2019-02-18T20:08:26.080Z,8.10
2019-02-18T20:10:55.081Z,8.00
2019-02-18T20:13:24.059Z,7.90
2019-02-18T20:15:53.033Z,7.90
2019-02-18T20:18:21.937Z,7.90
2019-02-18T20:20:50.991Z,7.90
2019-02-18T20:23:20.014Z,7.90
2019-02-18T20:25:49.015Z,7.90
2019-02-18T20:28:18.011Z,7.90
2019-02-18T20:30:47.053Z,7.90
2019-02-18T20:33:16.129Z,7.90
2019-02-18T20:35:45.421Z,7.90
2019-02-18T20:38:26.872Z,7.80
2019-02-18T20:41:51.867Z,7.90
2019-02-18T20:44:21.281Z,7.90
2019-02-18T20:46:50.272Z,7.80
2019-02-18T20:49:19.227Z,7.60
2019-02-18T20:51:48.465Z,7.50
2019-02-18T20:54:17.441Z,7.40
2019-02-18T20:56:46.432Z,7.30
2019-02-18T20:59:15.449Z,7.20
2019-02-18T21:01:53.193Z,7.10
2019-02-18T21:04:22.086Z,7.10
2019-02-18T21:06:51.189Z,7.10
2019-02-18T21:09:20.226Z,7.10
2019-02-18T21:11:49.343Z,7.10
2019-02-18T21:14:18.225Z,7.00
2019-02-18T21:16:47.092Z,7.10
2019-02-18T21:19:15.957Z,7.10
2019-02-18T21:25:54.018Z,7.30
2019-02-18T21:28:22.926Z,7.30
2019-02-18T21:30:52.149Z,7.20
2019-02-18T21:33:21.063Z,7.30
2019-02-18T21:35:50.001Z,7.30
2019-02-18T21:38:19.165Z,7.20
2019-02-18T21:40:53.565Z,7.20
2019-02-18T21:43:22.571Z,7.10
2019-02-18T21:45:51.518Z,7.10
2019-02-18T21:48:20.665Z,7.00
2019-02-18T21:50:49.755Z,6.90
2019-02-18T21:53:18.678Z,6.80
2019-02-18T21:55:47.992Z,6.80
2019-02-18T21:58:17.669Z,6.70
2019-02-18T22:00:46.830Z,6.70
2019-02-18T22:03:17.594Z,6.60
2019-02-18T22:05:46.640Z,6.60
2019-02-18T22:08:15.696Z,6.50
2019-02-18T22:10:44.792Z,6.50
2019-02-18T22:13:14.062Z,6.50
2019-02-18T22:15:43.098Z,6.40
2019-02-18T22:18:13.104Z,6.50
2019-02-18T22:20:42.072Z,6.50
2019-02-18T22:23:11.066Z,6.50
2019-02-18T22:25:40.037Z,6.50
2019-02-18T22:28:08.998Z,6.40
2019-02-18T22:30:38.323Z,6.40
2019-02-18T22:33:07.322Z,6.30
2019-02-18T22:35:36.206Z,6.30
2019-02-18T22:38:05.217Z,6.20
2019-02-18T22:40:34.277Z,6.20
2019-02-18T22:43:03.096Z,6.30
2019-02-18T22:45:32.134Z,6.30
2019-02-18T22:48:01.065Z,6.30
2019-02-18T22:50:30.032Z,6.30
2019-02-18T22:52:59.285Z,6.20
2019-02-18T22:55:28.169Z,6.20
2019-02-18T22:57:57.132Z,6.10
2019-02-18T23:00:51.317Z,6.10
2019-02-18T23:03:20.986Z,6.10
2019-02-18T23:05:50.040Z,6.00
2019-02-18T23:08:19.008Z,6.00
2019-02-18T23:10:48.136Z,5.90
2019-02-18T23:13:17.387Z,5.90
2019-02-18T23:15:46.374Z,5.80
2019-02-18T23:18:15.403Z,5.70
2019-02-18T23:20:45.312Z,5.70
2019-02-18T23:23:14.174Z,5.60
2019-02-18T23:25:43.084Z,5.60
2019-02-18T23:28:12.110Z,5.60
2019-02-18T23:30:41.042Z,5.50
2019-02-18T23:33:09.945Z,5.40
2019-02-18T23:35:39.032Z,5.40
2019-02-18T23:38:08.048Z,5.30
2019-02-18T23:40:36.918Z,5.30
2019-02-18T23:43:05.822Z,5.30
2019-02-18T23:45:34.817Z,5.30
2019-02-18T23:48:03.762Z,5.20
2019-02-18T23:50:32.592Z,5.20
2019-02-18T23:53:01.473Z,5.10
2019-02-18T23:55:30.360Z,5.10
2019-02-18T23:57:59.205Z,5.00
